Slater, South Carolina
Current Conditions -  °F | °C
As of 1:53 PM on Friday 24 Oct 2014 (Local Time) from KGMU Reporting Station
Clear Clear  
Wind Chill: 19°   Ceiling: Unl
Heat Index: 19°   Visibility: 10mi
Dew Point:   Wind: 6mph
Humidity: 38%   Direction: 270°W
Pressure: 30.05"   Gusts: NA
Location:  35.03°N, 82.5°W
Report Text: KGMU 241753Z 27005KT 10SM CLR 19/04 A3005 RMK AO2 SLP171 T01890044 10189 20078 58017
Loading
Personal Weather Stations






























Interactive Weather Map
Tropical Storm Tracking
New forecast layout! Learn more

10-Day Weather Forecast

Advertisements
Track Severe Weather on mobile